Magda, Louisiana
Current Conditions -  °F | °C
As of 4:53 PM on Tuesday 21 Oct 2014 (Local Time) from KAEX Reporting Station
Clear Clear  
Wind Chill: 80°   Ceiling: Unl
Heat Index: 81°   Visibility: 10mi
Dew Point: 60°   Wind: 6mph
Humidity: 50%   Direction: 40°NE
Pressure: 29.99"   Gusts: NA
Location:  31.2912°N, 92.5491°W
Report Text: KAEX 212153Z AUTO 04005KT 10SM CLR 27/16 A2999 RMK AO2 SLP159 T02670156
Loading
Personal Weather Stations






























Interactive Weather Map
Tropical Storm Tracking
New forecast layout! Learn more

10-Day Weather Forecast

Advertisements
Track Severe Weather on mobile